createdAt,value
2018-10-17T00:00:18.073Z,68.24
2018-10-17T00:05:01.068Z,66.81
2018-10-17T00:09:43.885Z,67.31
2018-10-17T00:14:27.925Z,67.60
2018-10-17T00:19:10.804Z,66.81
2018-10-17T00:23:54.844Z,67.39
2018-10-17T00:28:37.697Z,67.33
2018-10-17T00:33:20.552Z,66.77
2018-10-17T00:38:03.432Z,67.22
2018-10-17T00:42:46.337Z,66.58
2018-10-17T00:47:29.404Z,66.58
2018-10-17T00:52:12.314Z,66.39
2018-10-17T00:56:57.284Z,66.67
2018-10-17T01:01:40.264Z,66.26
2018-10-17T01:06:24.349Z,66.85
2018-10-17T01:11:07.607Z,65.62
2018-10-17T01:15:51.654Z,64.84
2018-10-17T01:20:34.563Z,65.83
2018-10-17T01:25:18.477Z,66.46
2018-10-17T01:30:01.328Z,69.05
2018-10-17T01:34:44.200Z,68.29
2018-10-17T01:39:27.058Z,66.14
2018-10-17T01:44:09.958Z,66.75
2018-10-17T01:48:52.850Z,66.76
2018-10-17T01:53:36.013Z,69.69
2018-10-17T01:58:18.913Z,69.78
2018-10-17T02:03:03.868Z,71.67
2018-10-17T02:07:46.742Z,70.40
2018-10-17T02:12:30.601Z,71.79
2018-10-17T02:17:13.539Z,69.33
2018-10-17T02:21:56.357Z,70.99
2018-10-17T02:26:40.276Z,70.57
2018-10-17T02:31:23.189Z,72.97
2018-10-17T02:36:09.673Z,73.62
2018-10-17T02:40:52.558Z,72.12
2018-10-17T02:45:37.446Z,73.48
2018-10-17T02:50:20.284Z,69.06
2018-10-17T02:55:03.324Z,71.05
2018-10-17T02:59:46.106Z,72.29
2018-10-17T03:04:29.248Z,71.89
2018-10-17T03:09:12.125Z,71.83
2018-10-17T03:13:55.023Z,71.75
2018-10-17T03:18:37.953Z,70.87
2018-10-17T03:23:21.107Z,70.20
2018-10-17T03:28:04.039Z,72.20
2018-10-17T03:32:50.635Z,71.21
2018-10-17T03:37:33.670Z,71.44
2018-10-17T03:42:17.634Z,69.78
2018-10-17T03:47:00.604Z,70.38
2018-10-17T03:51:43.463Z,71.32
2018-10-17T03:56:28.598Z,73.26
2018-10-17T04:01:11.493Z,74.50
2018-10-17T04:05:55.415Z,71.40
2018-10-17T04:10:38.682Z,70.78
2018-10-17T04:15:22.769Z,72.40
2018-10-17T04:20:05.833Z,72.55
2018-10-17T04:24:48.753Z,73.06
2018-10-17T04:29:43.753Z,71.18
2018-10-17T04:34:26.829Z,70.44
2018-10-17T04:39:11.123Z,73.15
2018-10-17T04:43:54.142Z,71.79
2018-10-17T04:48:37.130Z,70.31
2018-10-17T04:53:20.099Z,73.14
2018-10-17T04:58:03.497Z,74.04
2018-10-17T05:02:48.146Z,75.16
2018-10-17T05:07:31.036Z,73.92
2018-10-17T05:12:15.029Z,72.71
2018-10-17T05:16:58.123Z,71.30
2018-10-17T05:21:41.214Z,72.56
2018-10-17T05:26:24.083Z,70.51
2018-10-17T05:31:07.017Z,72.67
2018-10-17T05:35:50.908Z,76.05
2018-10-17T05:40:33.777Z,76.48
2018-10-17T05:45:16.709Z,77.71
2018-10-17T05:49:59.592Z,74.04
2018-10-17T05:54:42.698Z,74.75
2018-10-17T05:59:25.624Z,74.79
2018-10-17T06:04:09.184Z,76.26
2018-10-17T06:08:52.054Z,76.37
2018-10-17T06:13:35.005Z,77.20
2018-10-17T06:18:18.933Z,79.61
2018-10-17T06:23:01.845Z,82.05
2018-10-17T06:27:44.727Z,82.53
2018-10-17T06:32:27.907Z,81.82
2018-10-17T06:37:10.869Z,81.93
2018-10-17T06:41:53.825Z,81.78
2018-10-17T06:46:36.778Z,83.25
2018-10-17T06:51:19.700Z,83.13
2018-10-17T06:56:02.515Z,80.88
2018-10-17T07:00:45.396Z,88.56
2018-10-17T07:05:29.290Z,85.68
2018-10-17T07:10:12.156Z,87.02
2018-10-17T07:14:55.073Z,86.69
2018-10-17T07:19:37.988Z,86.86
2018-10-17T07:24:21.118Z,86.67
2018-10-17T07:29:04.049Z,87.34
2018-10-17T07:33:47.078Z,85.79
2018-10-17T07:38:29.920Z,86.18
2018-10-17T07:43:16.702Z,85.88
2018-10-17T07:47:59.595Z,85.04
2018-10-17T07:52:42.477Z,84.72
2018-10-17T07:57:25.335Z,84.26
2018-10-17T08:02:09.240Z,84.83
2018-10-17T08:06:52.103Z,85.52
2018-10-17T08:11:36.468Z,86.19
2018-10-17T08:16:19.335Z,85.33
2018-10-17T08:21:02.186Z,85.22
2018-10-17T08:25:47.232Z,85.08
2018-10-17T08:30:30.139Z,85.86
2018-10-17T08:35:14.112Z,84.77
2018-10-17T08:39:56.921Z,84.54
2018-10-17T08:44:40.820Z,84.77
2018-10-17T08:49:23.726Z,84.11
2018-10-17T08:54:06.626Z,84.67
2018-10-17T08:58:49.606Z,84.12
2018-10-17T09:03:32.645Z,84.06
2018-10-17T09:08:15.595Z,83.78
2018-10-17T09:12:59.540Z,83.51
2018-10-17T09:17:42.416Z,83.36
2018-10-17T09:22:25.741Z,83.12
2018-10-17T09:27:08.611Z,82.76
2018-10-17T09:31:51.730Z,82.30
2018-10-17T09:36:34.644Z,80.99
2018-10-17T09:41:17.739Z,81.82
2018-10-17T09:46:00.660Z,81.58
2018-10-17T09:50:43.530Z,81.54
2018-10-17T09:55:26.667Z,82.55
2018-10-17T10:01:12.387Z,83.46
2018-10-17T10:05:55.432Z,81.29
2018-10-17T10:10:38.310Z,81.71
2018-10-17T10:15:22.514Z,81.96
2018-10-17T10:20:05.603Z,81.52
2018-10-17T10:24:50.655Z,81.37
2018-10-17T10:29:33.490Z,81.24
2018-10-17T10:34:16.635Z,81.48
2018-10-17T10:39:01.370Z,82.86
2018-10-17T10:43:46.410Z,83.11
2018-10-17T10:48:29.537Z,83.34
2018-10-17T10:53:12.435Z,83.60
2018-10-17T10:57:56.243Z,82.34
2018-10-17T11:02:39.216Z,82.97
2018-10-17T11:07:22.114Z,83.20
2018-10-17T11:12:06.467Z,82.95
2018-10-17T11:16:49.348Z,86.08
2018-10-17T11:21:33.303Z,85.68
2018-10-17T11:27:45.635Z,86.18
2018-10-17T11:32:28.665Z,88.45
2018-10-17T11:37:11.561Z,86.74
2018-10-17T11:41:56.502Z,86.70
2018-10-17T11:46:39.383Z,87.77
2018-10-17T11:51:25.546Z,87.29
2018-10-17T11:56:08.573Z,88.50
2018-10-17T12:00:51.787Z,88.50
2018-10-17T12:05:35.050Z,87.88
2018-10-17T12:10:17.910Z,88.10
2018-10-17T12:15:08.692Z,86.77
2018-10-17T12:19:52.555Z,87.48
2018-10-17T12:24:38.650Z,86.79
2018-10-17T12:29:21.758Z,85.92
2018-10-17T12:34:06.253Z,85.23
2018-10-17T12:38:49.670Z,86.09
2018-10-17T12:43:32.833Z,86.05
2018-10-17T12:48:16.146Z,85.81
2018-10-17T12:52:59.454Z,85.18
2018-10-17T12:57:44.004Z,85.68
2018-10-17T13:02:27.155Z,85.22
2018-10-17T13:07:10.399Z,85.14
2018-10-17T13:11:59.304Z,84.73
2018-10-17T13:16:44.703Z,85.10
2018-10-17T13:21:28.894Z,85.16
2018-10-17T13:26:11.993Z,85.54
2018-10-17T13:30:56.418Z,83.50
2018-10-17T13:35:39.442Z,83.74
2018-10-17T13:40:23.008Z,83.75
2018-10-17T13:45:06.614Z,83.05
2018-10-17T13:49:49.630Z,82.46
2018-10-17T13:54:32.756Z,83.24
2018-10-17T13:59:15.780Z,82.64
2018-10-17T14:04:03.111Z,83.24
2018-10-17T14:08:46.111Z,83.73
2018-10-17T14:13:30.529Z,83.50
2018-10-17T14:18:13.530Z,83.84
2018-10-17T14:22:57.652Z,84.50
2018-10-17T14:27:40.745Z,84.89
2018-10-17T14:32:25.945Z,85.40
2018-10-17T14:37:08.970Z,85.12
2018-10-17T14:41:54.127Z,84.75
2018-10-17T14:46:37.094Z,85.06
2018-10-17T14:51:22.080Z,86.62
2018-10-17T14:56:06.081Z,84.77
2018-10-17T15:00:50.174Z,85.42
2018-10-17T15:05:33.204Z,85.17
2018-10-17T15:10:17.334Z,84.65
2018-10-17T15:15:00.417Z,84.98
2018-10-17T15:19:43.372Z,84.46
2018-10-17T15:24:26.277Z,85.03
2018-10-17T15:29:09.210Z,83.91
2018-10-17T15:33:52.384Z,84.22
2018-10-17T15:38:35.338Z,85.68
2018-10-17T15:43:21.752Z,84.99
2018-10-17T15:48:05.070Z,84.79
2018-10-17T15:52:49.067Z,84.86
2018-10-17T15:57:31.984Z,84.40
2018-10-17T16:02:16.034Z,85.26
2018-10-17T16:06:58.997Z,85.45
2018-10-17T16:11:46.229Z,85.16
2018-10-17T16:16:29.548Z,86.91
2018-10-17T16:21:14.339Z,87.84
2018-10-17T16:25:58.534Z,88.90
2018-10-17T16:30:45.865Z,87.79
2018-10-17T16:35:28.697Z,87.89
2018-10-17T16:40:12.643Z,86.09
2018-10-17T16:44:55.535Z,86.97
2018-10-17T16:49:38.477Z,86.13
2018-10-17T16:54:22.592Z,87.32
2018-10-17T16:59:05.523Z,86.34
2018-10-17T17:03:48.547Z,86.99
2018-10-17T17:08:31.431Z,88.79
2018-10-17T17:13:14.310Z,88.10
2018-10-17T17:17:57.393Z,87.89
2018-10-17T17:22:41.115Z,84.89
2018-10-17T17:27:24.027Z,83.31
2018-10-17T17:32:09.363Z,85.39
2018-10-17T17:36:52.250Z,88.06
2018-10-17T17:41:38.516Z,88.69
2018-10-17T17:46:21.461Z,85.36
2018-10-17T17:51:06.150Z,87.50
2018-10-17T17:55:51.515Z,87.48
2018-10-17T18:00:47.281Z,89.56
2018-10-17T18:05:34.439Z,88.57
2018-10-17T18:10:17.351Z,88.44
2018-10-17T18:15:00.262Z,86.16
2018-10-17T18:19:44.482Z,89.12
2018-10-17T18:24:28.192Z,86.86
2018-10-17T18:29:11.067Z,87.72
2018-10-17T18:33:55.134Z,89.04
2018-10-17T18:38:41.723Z,86.11
2018-10-17T18:43:25.218Z,85.74
2018-10-17T18:48:08.184Z,86.28
2018-10-17T18:52:51.262Z,89.50
2018-10-17T18:57:34.151Z,88.66
2018-10-17T19:02:18.272Z,88.38
2018-10-17T19:07:02.923Z,88.36
2018-10-17T19:11:47.882Z,88.34
2018-10-17T19:16:33.056Z,88.35
2018-10-17T19:21:17.995Z,86.34
2018-10-17T19:26:00.899Z,88.97
2018-10-17T19:30:44.771Z,85.97
2018-10-17T19:35:27.742Z,85.48
2018-10-17T19:40:11.478Z,85.61
2018-10-17T19:44:54.509Z,86.29
2018-10-17T19:49:38.667Z,86.45
2018-10-17T19:54:21.950Z,86.91
2018-10-17T19:59:05.296Z,87.13
2018-10-17T20:03:48.309Z,86.97
2018-10-17T20:08:31.212Z,86.42
2018-10-17T20:13:14.382Z,89.29
2018-10-17T20:17:57.622Z,92.48
2018-10-17T20:22:41.665Z,88.37
2018-10-17T20:27:24.528Z,87.26
2018-10-17T20:32:08.310Z,87.66
2018-10-17T20:36:51.157Z,88.45
2018-10-17T20:41:34.682Z,89.81
2018-10-17T20:46:17.614Z,89.47
2018-10-17T20:51:01.709Z,89.20
2018-10-17T20:55:44.561Z,88.12
2018-10-17T21:00:29.589Z,88.98
2018-10-17T21:05:12.512Z,88.97
2018-10-17T21:09:55.538Z,88.20
2018-10-17T21:14:38.414Z,88.30
2018-10-17T21:19:21.546Z,87.28
2018-10-17T21:24:04.880Z,88.14
2018-10-17T21:28:47.830Z,86.91
2018-10-17T21:33:30.857Z,88.43
2018-10-17T21:38:13.767Z,90.99
2018-10-17T21:42:56.786Z,91.39
2018-10-17T21:47:39.692Z,92.99
2018-10-17T21:52:22.754Z,90.85
2018-10-17T21:57:06.341Z,91.58
2018-10-17T22:01:49.301Z,91.94
2018-10-17T22:06:32.194Z,93.48
2018-10-17T22:11:15.158Z,92.58
2018-10-17T22:16:03.633Z,92.79
2018-10-17T22:20:46.716Z,93.44
2018-10-17T22:25:29.627Z,92.26
2018-10-17T22:30:12.724Z,92.52
2018-10-17T22:34:55.578Z,92.44
2018-10-17T22:39:38.506Z,89.97
2018-10-17T22:44:21.426Z,91.81
2018-10-17T22:49:04.967Z,88.33
2018-10-17T22:53:48.107Z,90.53
2018-10-17T22:58:30.938Z,88.75
2018-10-17T23:03:14.126Z,88.25
2018-10-17T23:07:56.987Z,91.41
2018-10-17T23:12:40.987Z,92.63
2018-10-17T23:17:23.850Z,92.05
2018-10-17T23:22:06.737Z,92.20
2018-10-17T23:26:49.666Z,93.12
2018-10-17T23:31:33.534Z,93.32
2018-10-17T23:36:16.409Z,93.55
2018-10-17T23:40:59.333Z,93.34
2018-10-17T23:45:42.191Z,93.37
2018-10-17T23:50:26.103Z,93.65
2018-10-17T23:55:09.430Z,93.25
2018-10-17T23:59:52.445Z,91.99
